Time;durP1;ratioP1;P1;durP2;ratioP2;P2;SDS_P1;SDS_P2;PMS_P1;PMS_P2;Temp;Humidity;BMP_temperature;BMP_pressure;BME280_temperature;BME280_humidity;BME280_pressure;Samples;Min_cycle;Max_cycle;Signal;HPM_P1;HPM_P2
2023/05/03 00:00:01;;;;;;;5.70;2.45;;;4.90;99.90;;;;;;5073214;28;20048;-82
2023/05/03 00:02:27;;;;;;;3.17;2.72;;;4.90;99.90;;;;;;5069866;28;20113;-81
2023/05/03 00:04:53;;;;;;;8.35;2.70;;;5.00;99.90;;;;;;5070796;28;20500;-81
2023/05/03 00:07:20;;;;;;;4.25;2.20;;;5.00;99.90;;;;;;5049810;28;20425;-82
2023/05/03 00:09:48;;;;;;;5.82;2.20;;;5.00;99.90;;;;;;5053901;28;20052;-82
2023/05/03 00:12:14;;;;;;;4.38;2.50;;;5.00;99.90;;;;;;5066715;28;20052;-86
2023/05/03 00:14:40;;;;;;;7.57;2.65;;;5.00;99.90;;;;;;5074652;28;20044;-81
2023/05/03 00:17:05;;;;;;;8.70;2.65;;;5.00;99.90;;;;;;5055683;28;20584;-81
2023/05/03 00:19:32;;;;;;;7.70;2.55;;;5.10;99.90;;;;;;5051640;28;20463;-84
2023/05/03 00:21:58;;;;;;;10.20;3.17;;;5.00;99.90;;;;;;5021377;28;20566;-81
2023/05/03 00:24:24;;;;;;;4.97;2.50;;;5.10;99.90;;;;;;5041237;28;20036;-80
2023/05/03 00:26:50;;;;;;;8.13;2.40;;;5.10;99.90;;;;;;5039319;28;20059;-82
2023/05/03 00:29:17;;;;;;;2.85;2.15;;;5.00;99.90;;;;;;5069116;28;20044;-88
2023/05/03 00:31:43;;;;;;;3.80;2.60;;;5.00;99.90;;;;;;5084028;28;20075;-81
2023/05/03 00:34:09;;;;;;;5.13;2.88;;;5.00;99.90;;;;;;5063559;28;20084;-81
2023/05/03 00:36:35;;;;;;;4.47;2.58;;;4.90;99.90;;;;;;5077100;28;20119;-80
2023/05/03 00:39:00;;;;;;;6.82;2.70;;;4.80;99.90;;;;;;5061789;28;20503;-81
2023/05/03 00:41:26;;;;;;;7.50;2.70;;;4.80;99.90;;;;;;5076242;28;20056;-82
2023/05/03 00:43:52;;;;;;;3.63;2.67;;;4.70;99.90;;;;;;5074919;28;20056;-82
2023/05/03 00:46:17;;;;;;;4.72;2.60;;;4.60;99.90;;;;;;5070625;28;20056;-81
2023/05/03 00:48:48;;;;;;;6.65;2.60;;;4.60;99.90;;;;;;5071886;28;20553;-83
2023/05/03 00:51:14;;;;;;;6.82;2.50;;;4.50;99.90;;;;;;5065690;28;20036;-80
2023/05/03 00:53:43;;;;;;;5.95;3.05;;;4.50;1.00;;;;;;5087545;28;20140;-84
2023/05/03 00:56:12;;;;;;;5.78;2.00;;;4.60;1.00;;;;;;5081816;28;20044;-81
2023/05/03 00:58:39;;;;;;;3.17;2.30;;;4.60;1.00;;;;;;5057723;28;20048;-82
2023/05/03 01:01:08;;;;;;;7.35;2.85;;;4.50;1.00;;;;;;5039605;28;20045;-80
2023/05/03 01:03:36;;;;;;;4.88;2.92;;;4.50;1.00;;;;;;5079540;28;20032;-85
2023/05/03 01:06:24;;;;;;;5.75;2.97;;;4.80;1.00;;;;;;5063086;28;20055;-80
2023/05/03 01:09:02;;;;;;;7.97;2.88;;;4.50;1.00;;;;;;5065950;28;20063;-81
2023/05/03 01:11:37;;;;;;;5.85;3.17;;;4.60;1.00;;;;;;5071407;28;20044;-80
2023/05/03 01:14:19;;;;;;;7.80;3.38;;;4.60;1.00;;;;;;5072712;28;20056;-81
2023/05/03 01:17:01;;;;;;;4.47;2.80;;;4.70;1.00;;;;;;5072977;28;20132;-81
2023/05/03 01:20:07;;;;;;;5.93;3.00;;;4.80;1.00;;;;;;5076401;28;20040;-83
2023/05/03 01:22:55;;;;;;;7.68;3.20;;;4.80;1.00;;;;;;5057152;28;20048;-83
2023/05/03 01:25:21;;;;;;;6.50;3.00;;;4.80;1.00;;;;;;5066459;28;20055;-81
2023/05/03 01:27:46;;;;;;;4.85;2.88;;;4.80;1.00;;;;;;5093633;28;20040;-82
2023/05/03 01:30:13;;;;;;;5.63;2.90;;;4.80;1.00;;;;;;5072606;28;20040;-82
2023/05/03 01:33:03;;;;;;;5.47;2.92;;;4.80;1.00;;;;;;5068195;28;20036;-84
2023/05/03 01:35:56;;;;;;;5.35;2.83;;;4.90;1.00;;;;;;5046368;28;20050;-82
2023/05/03 01:38:22;;;;;;;4.38;2.72;;;5.00;1.00;;;;;;5050066;28;20055;-83
2023/05/03 01:40:54;;;;;;;3.97;2.63;;;5.00;1.00;;;;;;5070428;28;20050;-82
2023/05/03 01:43:20;;;;;;;3.90;2.60;;;5.00;1.00;;;;;;5072576;28;20048;-82
2023/05/03 01:45:46;;;;;;;4.78;3.00;;;5.00;1.00;;;;;;5080585;28;20048;-82
2023/05/03 01:48:18;;;;;;;7.32;2.90;;;5.00;1.00;;;;;;5062093;28;20044;-83
2023/05/03 01:50:44;;;;;;;5.30;2.83;;;5.00;1.00;;;;;;5072047;28;20596;-81
2023/05/03 01:53:10;;;;;;;5.43;2.22;;;4.90;1.00;;;;;;5071001;28;20048;-82
2023/05/03 01:55:36;;;;;;;3.55;2.35;;;4.80;1.00;;;;;;5076479;28;20039;-82
2023/05/03 01:58:02;;;;;;;4.35;2.40;;;4.70;1.00;;;;;;5065894;28;20508;-81
2023/05/03 02:00:28;;;;;;;6.53;2.47;;;4.60;1.00;;;;;;5076609;28;20048;-82
2023/05/03 02:02:53;;;;;;;4.47;3.00;;;4.50;1.00;;;;;;5063770;28;20569;-82
2023/05/03 02:05:19;;;;;;;5.30;2.47;;;4.50;1.00;;;;;;5073519;28;20052;-81
2023/05/03 02:07:45;;;;;;;5.90;3.47;;;4.40;1.00;;;;;;5034765;28;20052;-82
2023/05/03 02:10:13;;;;;;;4.10;2.60;;;4.30;1.00;;;;;;5063405;28;20048;-86
2023/05/03 02:12:42;;;;;;;3.70;2.22;;;4.20;1.00;;;;;;5071280;28;20047;-82
2023/05/03 02:15:09;;;;;;;8.50;2.90;;;4.10;1.00;;;;;;5085753;28;20109;-82
2023/05/03 02:17:36;;;;;;;7.70;2.75;;;4.00;1.00;;;;;;5076568;28;20720;-82
2023/05/03 02:20:05;;;;;;;5.53;2.45;;;3.90;1.00;;;;;;5061224;28;20469;-81
2023/05/03 02:22:31;;;;;;;4.90;2.50;;;3.70;1.00;;;;;;5074136;28;20120;-82
2023/05/03 02:24:57;;;;;;;7.40;3.30;;;3.60;1.00;;;;;;5083358;28;20189;-81
2023/05/03 02:27:23;;;;;;;3.75;2.70;;;3.50;1.00;;;;;;5073761;28;20115;-81
2023/05/03 02:29:49;;;;;;;3.72;2.08;;;3.40;1.00;;;;;;5073376;28;20055;-81
2023/05/03 02:32:15;;;;;;;6.75;2.53;;;3.20;1.00;;;;;;5050096;28;20089;-81
2023/05/03 02:34:46;;;;;;;11.00;3.33;;;3.20;32.70;;;;;;5069227;28;20131;-82
2023/05/03 02:37:11;;;;;;;8.70;2.85;;;3.20;28.90;;;;;;5090712;28;20035;-81
2023/05/03 02:39:37;;;;;;;5.45;2.80;;;3.10;23.80;;;;;;5067625;28;20040;-85
2023/05/03 02:42:03;;;;;;;5.55;2.97;;;3.10;30.80;;;;;;5088893;28;20118;-81
2023/05/03 02:44:28;;;;;;;4.75;2.50;;;2.90;33.10;;;;;;5090210;28;20503;-81
2023/05/03 02:46:54;;;;;;;3.30;2.20;;;2.90;75.70;;;;;;5070029;28;20052;-81
2023/05/03 02:49:20;;;;;;;3.38;2.55;;;2.90;99.90;;;;;;5078556;28;20044;-82
2023/05/03 02:51:46;;;;;;;4.75;2.47;;;2.90;99.90;;;;;;5072522;28;20056;-82
2023/05/03 02:54:12;;;;;;;4.15;2.13;;;2.90;99.90;;;;;;5061861;28;20118;-81
2023/05/03 02:56:37;;;;;;;3.65;2.25;;;2.80;98.30;;;;;;5052512;28;20040;-84
2023/05/03 02:59:03;;;;;;;4.55;2.80;;;2.80;90.60;;;;;;5054402;28;20080;-82
2023/05/03 03:01:29;;;;;;;7.45;2.75;;;2.70;99.90;;;;;;5069453;28;20039;-82
2023/05/03 03:03:55;;;;;;;5.07;2.45;;;2.60;99.90;;;;;;5090323;28;20048;-81
2023/05/03 03:06:21;;;;;;;4.20;2.40;;;2.60;99.90;;;;;;5053114;28;20476;-81
2023/05/03 03:08:46;;;;;;;7.18;2.58;;;2.50;99.90;;;;;;5060720;28;20052;-81
2023/05/03 03:11:12;;;;;;;5.30;3.05;;;2.70;99.90;;;;;;5071737;28;20062;-82
2023/05/03 03:13:40;;;;;;;5.20;2.72;;;2.50;99.90;;;;;;5061003;28;20075;-81
2023/05/03 03:16:09;;;;;;;4.00;2.60;;;2.60;99.90;;;;;;5056530;28;20052;-81
2023/05/03 03:18:35;;;;;;;3.58;2.50;;;2.50;99.90;;;;;;5067235;28;20153;-82
2023/05/03 03:21:02;;;;;;;4.28;2.63;;;2.40;99.90;;;;;;5050732;28;20362;-82
2023/05/03 03:23:28;;;;;;;5.50;2.67;;;2.50;99.90;;;;;;5064472;28;20135;-85
2023/05/03 03:25:53;;;;;;;6.43;2.40;;;2.40;99.90;;;;;;5035169;28;20128;-82
2023/05/03 03:28:19;;;;;;;5.28;2.88;;;2.40;99.90;;;;;;5032180;28;20132;-83
2023/05/03 03:30:45;;;;;;;4.47;2.97;;;2.40;99.90;;;;;;5066869;28;20048;-83
2023/05/03 03:33:11;;;;;;;4.93;2.80;;;2.30;99.90;;;;;;5083593;28;20059;-82
2023/05/03 03:35:38;;;;;;;6.60;2.65;;;2.30;99.90;;;;;;5073938;28;20731;-82
2023/05/03 03:38:04;;;;;;;6.93;2.47;;;2.30;99.90;;;;;;5063999;28;20063;-81
2023/05/03 03:40:30;;;;;;;6.60;2.70;;;2.30;99.90;;;;;;5055711;28;20048;-82
2023/05/03 03:42:56;;;;;;;4.68;2.63;;;2.30;99.90;;;;;;5057688;28;20531;-81
2023/05/03 03:45:21;;;;;;;6.90;2.80;;;2.30;99.90;;;;;;5075531;28;20067;-82
2023/05/03 03:47:47;;;;;;;4.18;2.75;;;2.30;99.90;;;;;;5068087;28;20090;-81
2023/05/03 03:50:13;;;;;;;8.00;2.95;;;2.30;99.90;;;;;;5067116;28;20044;-82
2023/05/03 03:52:39;;;;;;;6.57;2.63;;;2.30;99.90;;;;;;5068453;28;20525;-81
2023/05/03 03:55:05;;;;;;;4.95;2.55;;;2.40;99.90;;;;;;5044490;28;20044;-81
2023/05/03 03:57:31;;;;;;;5.40;3.40;;;2.50;99.90;;;;;;5065499;28;20616;-82
2023/05/03 03:59:58;;;;;;;7.30;3.00;;;2.60;99.90;;;;;;5066512;28;20059;-82
2023/05/03 04:02:24;;;;;;;4.53;2.88;;;2.80;99.90;;;;;;5064080;28;20525;-81
2023/05/03 04:04:49;;;;;;;5.63;3.13;;;2.80;99.90;;;;;;5050104;28;20559;-86
2023/05/03 04:07:15;;;;;;;6.85;3.08;;;3.00;99.90;;;;;;5069095;28;20043;-82
2023/05/03 04:09:41;;;;;;;9.23;3.30;;;3.10;99.90;;;;;;5047640;28;20489;-82
2023/05/03 04:12:07;;;;;;;5.15;3.00;;;3.20;99.90;;;;;;5067302;28;20500;-86
2023/05/03 04:14:33;;;;;;;5.65;3.30;;;3.30;99.90;;;;;;5067519;28;20449;-82
2023/05/03 04:16:58;;;;;;;7.82;3.80;;;3.40;99.90;;;;;;5043096;28;20040;-81
2023/05/03 04:19:25;;;;;;;5.75;3.45;;;3.50;99.90;;;;;;5044817;28;20074;-84
2023/05/03 04:21:51;;;;;;;4.10;2.90;;;3.60;99.90;;;;;;5076393;28;20521;-85
2023/05/03 04:24:17;;;;;;;4.75;3.38;;;3.70;99.90;;;;;;5060846;28;20057;-81
2023/05/03 04:26:43;;;;;;;5.38;3.33;;;3.70;99.90;;;;;;5044789;28;20053;-85
2023/05/03 04:29:12;;;;;;;6.68;3.55;;;3.90;99.90;;;;;;5056802;28;20040;-81
2023/05/03 04:31:38;;;;;;;7.10;3.45;;;3.90;99.90;;;;;;5077212;28;20157;-81
2023/05/03 04:34:04;;;;;;;7.60;4.07;;;4.00;99.90;;;;;;5070434;28;20094;-81
2023/05/03 04:36:31;;;;;;;6.05;3.65;;;4.10;99.90;;;;;;5072036;28;20557;-81
2023/05/03 04:38:57;;;;;;;7.30;3.95;;;4.10;99.90;;;;;;5054327;28;20091;-80
2023/05/03 04:41:23;;;;;;;6.75;3.47;;;4.20;99.90;;;;;;5067375;28;20056;-81
2023/05/03 04:43:49;;;;;;;5.15;3.30;;;4.30;99.90;;;;;;5070040;28;20207;-82
2023/05/03 04:46:16;;;;;;;7.30;3.30;;;4.40;99.90;;;;;;5061449;28;20101;-81
2023/05/03 04:48:41;;;;;;;5.25;3.30;;;4.60;99.90;;;;;;5070798;28;20044;-82
2023/05/03 04:51:07;;;;;;;7.60;3.65;;;4.60;99.90;;;;;;5071566;28;20098;-82
2023/05/03 04:53:33;;;;;;;6.47;3.60;;;4.70;99.90;;;;;;5074606;28;20049;-82
2023/05/03 04:55:58;;;;;;;5.00;3.55;;;4.80;99.90;;;;;;5059846;28;20051;-87
2023/05/03 04:58:24;;;;;;;5.10;3.38;;;4.90;99.90;;;;;;5057020;28;20041;-81
2023/05/03 05:00:50;;;;;;;4.90;3.47;;;5.00;99.90;;;;;;5075309;28;20095;-82
2023/05/03 05:03:16;;;;;;;6.72;3.70;;;5.10;99.90;;;;;;5077898;28;20045;-82
2023/05/03 05:05:42;;;;;;;8.55;3.75;;;5.10;99.90;;;;;;5066220;28;20559;-81
2023/05/03 05:08:07;;;;;;;7.63;3.33;;;5.20;99.90;;;;;;5065324;28;20055;-82
2023/05/03 05:10:42;;;;;;;6.28;3.78;;;5.40;99.90;;;;;;5054148;28;20474;-83
2023/05/03 05:13:08;;;;;;;6.72;3.53;;;5.50;99.90;;;;;;5052574;28;20088;-80
2023/05/03 05:15:34;;;;;;;6.25;3.75;;;5.60;87.00;;;;;;5070838;28;20067;-79
2023/05/03 05:18:00;;;;;;;5.97;3.92;;;5.60;54.00;;;;;;5070516;28;20455;-86
2023/05/03 05:20:26;;;;;;;8.48;4.45;;;5.70;29.40;;;;;;5053612;28;20045;-83
2023/05/03 05:22:51;;;;;;;7.55;3.42;;;5.70;7.80;;;;;;5037334;28;20504;-80
2023/05/03 05:25:17;;;;;;;6.47;3.50;;;5.80;1.00;;;;;;5051979;28;20499;-81
2023/05/03 05:27:43;;;;;;;6.55;2.88;;;5.80;1.00;;;;;;5073920;28;20079;-81
2023/05/03 05:30:09;;;;;;;6.18;3.38;;;5.90;1.00;;;;;;5072369;28;20056;-81
2023/05/03 05:32:35;;;;;;;6.90;3.15;;;6.00;1.00;;;;;;5052405;28;20093;-81
2023/05/03 05:35:00;;;;;;;4.93;2.83;;;6.10;1.00;;;;;;5074935;28;20046;-87
2023/05/03 05:37:26;;;;;;;5.95;3.15;;;6.20;1.00;;;;;;5085511;28;20040;-81
2023/05/03 05:39:53;;;;;;;4.57;3.13;;;6.30;1.00;;;;;;5055303;28;20607;-81
2023/05/03 05:42:18;;;;;;;5.30;3.03;;;6.40;1.00;;;;;;5058689;28;20124;-85
2023/05/03 05:44:44;;;;;;;7.20;3.47;;;6.50;1.00;;;;;;5064771;28;20497;-83
2023/05/03 05:47:10;;;;;;;5.03;3.00;;;6.70;1.00;;;;;;5077263;28;20504;-82
2023/05/03 05:49:36;;;;;;;6.95;3.10;;;6.80;1.00;;;;;;5061990;28;20048;-82
2023/05/03 05:52:02;;;;;;;4.05;3.00;;;7.00;1.00;;;;;;5058015;28;20044;-84
2023/05/03 05:54:28;;;;;;;4.20;2.47;;;7.10;1.00;;;;;;5045894;28;20063;-81
2023/05/03 05:56:53;;;;;;;11.25;3.25;;;7.20;99.90;;;;;;5038460;28;20063;-86
2023/05/03 05:59:19;;;;;;;5.05;2.90;;;7.30;99.90;;;;;;5067350;28;20056;-81
2023/05/03 06:01:45;;;;;;;5.00;2.53;;;7.50;99.90;;;;;;5050871;28;20059;-82
2023/05/03 06:04:12;;;;;;;3.50;2.47;;;7.60;99.90;;;;;;5069702;28;20044;-81
2023/05/03 06:06:38;;;;;;;6.40;3.08;;;7.70;99.90;;;;;;5054496;28;20424;-81
2023/05/03 06:09:04;;;;;;;6.15;3.15;;;7.90;99.90;;;;;;5071353;28;20040;-81
2023/05/03 06:11:30;;;;;;;5.68;2.72;;;8.00;99.90;;;;;;5038578;28;20048;-78
2023/05/03 06:13:56;;;;;;;6.53;3.03;;;8.20;99.90;;;;;;5062118;28;20064;-78
2023/05/03 06:16:23;;;;;;;5.60;2.78;;;8.30;99.90;;;;;;5074208;28;20512;-80
2023/05/03 06:18:49;;;;;;;5.60;2.67;;;8.40;99.90;;;;;;5057236;28;20044;-79
2023/05/03 06:21:15;;;;;;;4.80;2.10;;;8.50;99.90;;;;;;5069312;28;20081;-80
2023/05/03 06:23:41;;;;;;;3.45;2.60;;;8.60;99.90;;;;;;5054127;28;20122;-81
2023/05/03 06:26:07;;;;;;;8.05;2.85;;;8.70;99.90;;;;;;5084135;28;20044;-81
2023/05/03 06:28:33;;;;;;;3.50;2.30;;;8.80;99.90;;;;;;5068837;28;20048;-82
2023/05/03 06:31:00;;;;;;;2.72;2.45;;;8.90;99.90;;;;;;5051229;28;20033;-81
2023/05/03 06:33:26;;;;;;;3.75;1.92;;;9.00;99.90;;;;;;5067404;28;20076;-81
2023/05/03 06:35:51;;;;;;;5.60;2.20;;;9.10;99.90;;;;;;5055837;28;20450;-81
2023/05/03 06:38:17;;;;;;;5.93;2.08;;;9.10;99.90;;;;;;5068159;28;20498;-81
2023/05/03 06:40:46;;;;;;;5.68;1.60;;;9.20;99.90;;;;;;5062884;28;20084;-81
2023/05/03 06:43:12;;;;;;;3.38;1.88;;;9.20;99.90;;;;;;5063244;28;20037;-84
2023/05/03 06:45:40;;;;;;;7.10;1.90;;;9.20;99.90;;;;;;5073099;28;20070;-81
2023/05/03 06:48:06;;;;;;;3.53;1.90;;;9.30;99.90;;;;;;5063848;28;20067;-81
2023/05/03 06:50:32;;;;;;;2.20;1.88;;;9.40;99.90;;;;;;5069358;28;20087;-81
2023/05/03 06:52:57;;;;;;;1.92;1.70;;;9.50;99.90;;;;;;5056631;28;20092;-81
2023/05/03 06:55:23;;;;;;;3.05;1.73;;;9.60;88.90;;;;;;5043666;28;20056;-82
2023/05/03 06:57:51;;;;;;;3.22;2.15;;;9.70;90.50;;;;;;5063413;28;20105;-81
2023/05/03 07:00:17;;;;;;;4.30;2.03;;;9.90;88.80;;;;;;5068930;28;20111;-80
2023/05/03 07:02:43;;;;;;;1.92;1.50;;;10.00;83.50;;;;;;5069039;28;20106;-81
2023/05/03 07:05:09;;;;;;;2.65;1.40;;;10.10;80.10;;;;;;5035716;28;20486;-82
2023/05/03 07:07:35;;;;;;;6.93;1.63;;;10.30;73.10;;;;;;5068417;28;20059;-80
2023/05/03 07:10:01;;;;;;;2.55;1.60;;;10.40;56.60;;;;;;5060964;28;20036;-80
2023/05/03 07:12:27;;;;;;;3.92;1.63;;;10.40;45.00;;;;;;5033629;28;20123;-78
2023/05/03 07:14:54;;;;;;;5.00;1.90;;;10.50;32.40;;;;;;5059741;28;20135;-83
2023/05/03 07:17:20;;;;;;;5.22;2.10;;;10.60;15.20;;;;;;5051236;28;20048;-80
2023/05/03 07:19:47;;;;;;;4.45;2.10;;;10.70;1.00;;;;;;5067977;28;20052;-82
2023/05/03 07:22:14;;;;;;;4.70;1.88;;;10.70;1.00;;;;;;5067809;28;20041;-81
2023/05/03 07:24:40;;;;;;;2.60;1.50;;;10.70;1.00;;;;;;5068160;28;20048;-80
2023/05/03 07:27:06;;;;;;;2.05;1.30;;;10.70;1.00;;;;;;5078923;28;20044;-81
2023/05/03 07:29:32;;;;;;;2.58;1.45;;;10.80;1.00;;;;;;5074747;28;20052;-80
2023/05/03 07:31:58;;;;;;;6.13;1.60;;;10.80;1.00;;;;;;5056261;28;20048;-81
2023/05/03 07:34:24;;;;;;;5.60;1.50;;;10.80;1.00;;;;;;5059515;28;20136;-81
2023/05/03 07:36:50;;;;;;;6.30;2.50;;;10.90;1.00;;;;;;5064340;28;20052;-81
2023/05/03 07:39:17;;;;;;;4.18;1.50;;;10.90;1.00;;;;;;5059159;28;20091;-82
2023/05/03 07:41:43;;;;;;;6.60;2.25;;;11.00;1.00;;;;;;5080401;28;20418;-82
2023/05/03 07:44:09;;;;;;;4.78;2.67;;;11.20;1.00;;;;;;5066926;28;20048;-81
2023/05/03 07:46:34;;;;;;;5.50;2.30;;;11.30;1.00;;;;;;5067572;28;20116;-81
2023/05/03 07:49:02;;;;;;;5.50;1.75;;;11.40;1.00;;;;;;5057310;28;20093;-81
2023/05/03 07:51:28;;;;;;;2.00;1.33;;;11.40;1.00;;;;;;5066394;28;20083;-80
2023/05/03 07:53:57;;;;;;;3.60;1.75;;;11.40;1.00;;;;;;5068609;28;20103;-80
2023/05/03 07:56:22;;;;;;;4.38;1.90;;;11.40;1.00;;;;;;5053497;28;20127;-85
2023/05/03 07:58:48;;;;;;;5.70;2.00;;;11.50;1.00;;;;;;5082294;28;20118;-81
2023/05/03 08:01:14;;;;;;;6.13;1.50;;;11.60;1.00;;;;;;5052213;28;20047;-81
2023/05/03 08:03:42;;;;;;;2.95;1.30;;;11.70;1.00;;;;;;5061482;28;20048;-81
2023/05/03 08:06:07;;;;;;;3.13;1.38;;;11.70;1.00;;;;;;5073780;28;20052;-82
2023/05/03 08:08:35;;;;;;;6.75;2.60;;;11.80;1.00;;;;;;5074319;28;20044;-83
2023/05/03 08:11:01;;;;;;;6.43;2.58;;;11.80;1.00;;;;;;5068684;28;20048;-81
2023/05/03 08:13:26;;;;;;;4.95;2.03;;;11.90;1.00;;;;;;5063992;28;20063;-81
2023/05/03 08:15:52;;;;;;;5.97;1.90;;;12.00;1.00;;;;;;5066053;28;20123;-81
2023/05/03 08:18:18;;;;;;;4.13;1.27;;;12.00;1.00;;;;;;5073164;28;20489;-81
2023/05/03 08:20:44;;;;;;;6.93;1.50;;;12.20;1.00;;;;;;5052790;28;20856;-81
2023/05/03 08:23:10;;;;;;;2.85;1.45;;;12.20;1.00;;;;;;5079617;28;20397;-80
2023/05/03 08:25:36;;;;;;;4.40;1.30;;;12.30;1.00;;;;;;5057715;28;20453;-82
2023/05/03 08:28:02;;;;;;;4.28;1.88;;;12.40;1.00;;;;;;5071764;28;20056;-81
2023/05/03 08:30:29;;;;;;;5.93;1.67;;;12.40;1.00;;;;;;5050723;28;20048;-86
2023/05/03 08:32:55;;;;;;;7.55;2.50;;;12.50;1.00;;;;;;5057022;28;20051;-80
2023/05/03 08:35:20;;;;;;;3.63;1.90;;;12.40;1.00;;;;;;5054885;28;20048;-81
2023/05/03 08:37:46;;;;;;;3.13;1.65;;;12.40;1.00;;;;;;5054166;28;20830;-81
2023/05/03 08:40:13;;;;;;;4.82;2.08;;;12.40;1.00;;;;;;5070612;28;20118;-80
2023/05/03 08:42:43;;;;;;;4.80;2.20;;;12.50;1.00;;;;;;5072052;28;20048;-81
2023/05/03 08:45:11;;;;;;;4.82;2.17;;;12.80;1.00;;;;;;5070750;28;20119;-81
2023/05/03 08:47:39;;;;;;;3.50;2.25;;;12.90;1.00;;;;;;5070787;28;20055;-80
2023/05/03 08:50:05;;;;;;;6.10;2.22;;;13.00;1.00;;;;;;5036879;28;20568;-81
2023/05/03 08:52:33;;;;;;;2.80;2.00;;;13.10;1.00;;;;;;5054073;28;20056;-83
2023/05/03 08:54:59;;;;;;;5.43;2.28;;;13.00;1.00;;;;;;5071392;28;20481;-80
2023/05/03 08:57:26;;;;;;;3.38;2.00;;;13.00;1.00;;;;;;5070779;28;20050;-83
2023/05/03 08:59:56;;;;;;;2.83;2.17;;;13.00;1.00;;;;;;5064109;28;20131;-81
2023/05/03 09:02:21;;;;;;;5.82;3.38;;;13.00;1.00;;;;;;5064507;28;20551;-82
2023/05/03 09:04:47;;;;;;;2.53;2.25;;;12.90;1.00;;;;;;5065813;28;20047;-80
2023/05/03 09:07:14;;;;;;;4.25;2.25;;;13.10;1.00;;;;;;5065319;28;20041;-82
2023/05/03 09:09:40;;;;;;;3.95;2.20;;;13.20;1.00;;;;;;5082557;28;20043;-82
2023/05/03 09:12:06;;;;;;;3.40;1.63;;;13.40;1.00;;;;;;5073679;28;20059;-81
2023/05/03 09:14:44;;;;;;;3.33;1.98;;;13.60;1.00;;;;;;5059302;28;20048;-87
2023/05/03 09:17:15;;;;;;;2.58;2.20;;;13.80;1.00;;;;;;5099174;28;20053;-81
2023/05/03 09:19:52;;;;;;;5.38;2.67;;;13.80;1.00;;;;;;5089612;28;20047;-81
2023/05/03 09:22:18;;;;;;;5.13;2.38;;;13.80;1.00;;;;;;5062189;28;20052;-81
2023/05/03 09:25:03;;;;;;;5.25;2.20;;;13.60;1.00;;;;;;5040288;28;20059;-80
2023/05/03 09:27:29;;;;;;;4.97;1.95;;;13.40;1.00;;;;;;5035829;28;20040;-82
2023/05/03 09:29:55;;;;;;;3.05;1.98;;;13.30;1.00;;;;;;5065189;28;20599;-81
2023/05/03 09:32:24;;;;;;;3.75;2.05;;;13.30;1.00;;;;;;5057724;28;20044;-81
2023/05/03 09:34:50;;;;;;;2.55;2.00;;;13.30;1.00;;;;;;5054202;28;20133;-81
2023/05/03 09:37:15;;;;;;;3.55;2.17;;;13.30;1.00;;;;;;5053155;28;20044;-84
2023/05/03 09:39:43;;;;;;;2.95;2.15;;;13.40;1.00;;;;;;5070581;28;20131;-83
2023/05/03 09:42:14;;;;;;;2.30;2.00;;;13.40;1.00;;;;;;5066226;28;20055;-81
2023/05/03 09:44:41;;;;;;;2.90;2.58;;;13.40;1.00;;;;;;5070142;28;20056;-86
2023/05/03 09:47:07;;;;;;;2.72;2.15;;;13.40;1.00;;;;;;5071418;28;20108;-81
2023/05/03 09:49:33;;;;;;;2.20;1.95;;;13.40;1.00;;;;;;5071688;28;20104;-81
2023/05/03 09:52:01;;;;;;;2.22;1.83;;;13.50;1.00;;;;;;5055161;28;20048;-81
2023/05/03 09:54:30;;;;;;;4.45;2.13;;;13.60;1.00;;;;;;5077545;28;20521;-81
2023/05/03 09:56:56;;;;;;;3.58;2.03;;;13.60;1.00;;;;;;5061745;28;20144;-81
2023/05/03 09:59:22;;;;;;;3.17;2.10;;;13.80;1.00;;;;;;5068009;28;20052;-82
2023/05/03 10:01:49;;;;;;;3.53;2.13;;;13.90;1.00;;;;;;5081012;28;20053;-82
2023/05/03 10:04:18;;;;;;;4.63;2.15;;;13.80;1.00;;;;;;5039154;28;20056;-81
2023/05/03 10:06:47;;;;;;;4.13;2.15;;;13.80;1.00;;;;;;5078581;28;20059;-81
2023/05/03 10:09:23;;;;;;;4.43;2.30;;;14.10;1.00;;;;;;5069624;28;20127;-82
2023/05/03 10:11:57;;;;;;;4.57;1.90;;;14.70;1.00;;;;;;5059164;28;20064;-78
2023/05/03 10:14:23;;;;;;;2.80;2.03;;;15.90;1.00;;;;;;5064379;28;20125;-78
2023/05/03 10:16:52;;;;;;;4.07;2.05;;;16.30;1.00;;;;;;5063835;28;20044;-78
2023/05/03 10:19:31;;;;;;;2.70;1.88;;;16.40;1.00;;;;;;5070347;28;20152;-79
2023/05/03 10:22:08;;;;;;;3.10;1.98;;;16.70;1.00;;;;;;5069294;28;20059;-78
2023/05/03 10:24:35;;;;;;;3.72;1.95;;;16.60;1.00;;;;;;5069801;28;20041;-81
2023/05/03 10:27:01;;;;;;;6.55;1.88;;;16.50;1.00;;;;;;5068287;28;20098;-81
2023/05/03 10:29:36;;;;;;;4.90;1.67;;;16.30;1.00;;;;;;5068652;28;20083;-81
2023/05/03 10:32:25;;;;;;;2.22;1.88;;;16.10;1.00;;;;;;5069142;28;20502;-81
2023/05/03 10:35:08;;;;;;;3.47;1.60;;;16.00;1.00;;;;;;5068541;28;20049;-81
2023/05/03 10:37:35;;;;;;;2.88;1.60;;;16.70;1.00;;;;;;5059240;28;20119;-81
2023/05/03 10:40:14;;;;;;;4.18;1.83;;;17.20;1.00;;;;;;5067046;28;20490;-82
2023/05/03 10:42:55;;;;;;;2.97;2.10;;;17.40;1.00;;;;;;5069558;28;20126;-81
2023/05/03 10:45:25;;;;;;;5.07;1.83;;;17.30;1.00;;;;;;5068652;28;20079;-81
2023/05/03 10:48:09;;;;;;;4.38;1.60;;;17.00;1.00;;;;;;5068888;28;20082;-81
2023/05/03 10:50:36;;;;;;;7.47;1.85;;;16.40;1.00;;;;;;5059974;28;20036;-82
2023/05/03 10:53:01;;;;;;;3.08;1.77;;;16.10;1.00;;;;;;5051865;28;20048;-85
2023/05/03 10:55:27;;;;;;;1.80;1.60;;;16.20;1.00;;;;;;5070063;28;20040;-82
2023/05/03 10:57:56;;;;;;;4.80;1.92;;;17.70;1.00;;;;;;5067239;28;20123;-81
2023/05/03 11:00:23;;;;;;;4.05;1.80;;;19.40;1.00;;;;;;5069387;28;20048;-79
2023/05/03 11:03:03;;;;;;;3.40;1.70;;;21.00;1.00;;;;;;5067867;28;20512;-80
2023/05/03 11:05:30;;;;;;;3.97;1.65;;;22.20;1.00;;;;;;5067834;28;20051;-84
2023/05/03 11:08:16;;;;;;;2.08;1.42;;;23.20;1.00;;;;;;5067948;28;20052;-79
2023/05/03 11:10:42;;;;;;;;;;;23.90;1.00;;;;;;5069813;28;20044;-79
2023/05/03 11:13:08;;;;;;;5.07;1.42;;;24.70;1.00;;;;;;5085239;28;19936;-79
2023/05/03 11:15:34;;;;;;;2.17;1.35;;;24.70;1.00;;;;;;5055112;28;21402;-79
2023/05/03 11:18:00;;;;;;;3.70;1.50;;;25.20;1.00;;;;;;5058664;28;20053;-81
2023/05/03 11:20:26;;;;;;;3.45;1.13;;;25.50;1.00;;;;;;5064473;28;20032;-80
2023/05/03 11:22:52;;;;;;;3.35;1.10;;;25.90;1.00;;;;;;5061762;28;20052;-85
2023/05/03 11:25:18;;;;;;;3.72;1.30;;;26.40;1.00;;;;;;5057705;28;20123;-80
2023/05/03 11:27:46;;;;;;;2.00;1.40;;;26.70;1.00;;;;;;5027247;28;20060;-79
2023/05/03 11:30:13;;;;;;;3.88;1.67;;;26.90;1.00;;;;;;5061738;28;20679;-82
2023/05/03 11:32:40;;;;;;;3.28;1.58;;;27.40;1.00;;;;;;5057681;28;20656;-81
2023/05/03 11:35:06;;;;;;;4.80;2.22;;;27.90;1.00;;;;;;5031735;28;20131;-80
2023/05/03 11:37:33;;;;;;;2.33;1.40;;;28.10;1.00;;;;;;5068195;28;20053;-81
2023/05/03 11:39:59;;;;;;;3.40;1.50;;;28.20;1.00;;;;;;5068522;28;20142;-80
2023/05/03 11:42:25;;;;;;;3.10;1.55;;;27.60;1.00;;;;;;5060386;28;20056;-80
2023/05/03 11:44:55;;;;;;;2.35;1.30;;;27.10;1.00;;;;;;5032530;28;20041;-81
2023/05/03 11:47:21;;;;;;;1.83;1.33;;;26.50;1.00;;;;;;5068722;28;20056;-80
2023/05/03 11:49:54;;;;;;;2.83;1.40;;;26.40;1.00;;;;;;5068136;28;20045;-79
2023/05/03 11:52:22;;;;;;;2.90;1.10;;;26.70;1.00;;;;;;5089145;28;20127;-83
2023/05/03 11:54:47;;;;;;;2.92;1.23;;;26.80;1.00;;;;;;5054228;28;20053;-80
2023/05/03 11:57:14;;;;;;;4.13;1.38;;;27.10;1.00;;;;;;5067448;28;20041;-81
2023/05/03 11:59:40;;;;;;;4.10;1.98;;;27.00;1.00;;;;;;5051558;28;20084;-80
2023/05/03 12:02:08;;;;;;;5.97;2.50;;;26.60;1.00;;;;;;5055474;28;20063;-80
2023/05/03 12:04:35;;;;;;;2.72;1.60;;;25.00;1.00;;;;;;5068012;28;20127;-80
2023/05/03 12:07:02;;;;;;;5.53;2.13;;;23.40;1.00;;;;;;5067817;28;20401;-80
2023/05/03 12:09:28;;;;;;;1.92;1.20;;;22.80;1.00;;;;;;5068440;28;20067;-82
2023/05/03 12:11:53;;;;;;;6.45;3.88;;;23.20;1.00;;;;;;5080823;28;20044;-81
2023/05/03 12:14:20;;;;;;;3.17;1.80;;;24.10;1.00;;;;;;5062936;28;20053;-81
2023/05/03 12:16:51;;;;;;;8.68;4.40;;;25.00;1.00;;;;;;5060783;28;20056;-80
2023/05/03 12:19:29;;;;;;;3.03;1.77;;;25.70;1.00;;;;;;5047474;28;20053;-80
2023/05/03 12:21:55;;;;;;;4.72;1.52;;;26.40;1.00;;;;;;5061602;28;20501;-80
2023/05/03 12:24:22;;;;;;;3.78;1.70;;;26.40;1.00;;;;;;5060384;28;20047;-81
2023/05/03 12:26:48;;;;;;;3.30;1.92;;;26.40;1.00;;;;;;5063251;28;20049;-81
2023/05/03 12:29:15;;;;;;;3.38;1.80;;;26.20;1.00;;;;;;5068505;28;20090;-80
2023/05/03 12:31:41;;;;;;;11.23;7.10;;;25.80;1.00;;;;;;5067333;28;20084;-80
2023/05/03 12:34:07;;;;;;;4.10;1.70;;;25.50;1.00;;;;;;5066855;28;20135;-80
2023/05/03 12:36:33;;;;;;;5.75;3.20;;;25.50;1.00;;;;;;5055523;28;20509;-82
2023/05/03 12:39:00;;;;;;;2.20;1.60;;;25.60;1.00;;;;;;5068211;28;20119;-80
2023/05/03 12:41:28;;;;;;;4.47;1.88;;;25.80;1.00;;;;;;5066867;28;20127;-80
2023/05/03 12:43:55;;;;;;;2.85;1.92;;;26.00;1.00;;;;;;5066890;28;20097;-79
2023/05/03 12:46:22;;;;;;;3.58;1.88;;;26.40;1.00;;;;;;5050383;28;20056;-80
2023/05/03 12:48:49;;;;;;;8.98;5.13;;;26.70;1.00;;;;;;5044734;28;20060;-79
2023/05/03 12:51:14;;;;;;;2.28;1.60;;;26.80;1.00;;;;;;5076436;28;20047;-85
2023/05/03 12:53:40;;;;;;;3.00;1.67;;;26.70;1.00;;;;;;5071518;28;20047;-81
2023/05/03 12:56:06;;;;;;;3.30;1.90;;;26.80;1.00;;;;;;5054604;28;20482;-81
2023/05/03 12:58:33;;;;;;;4.20;2.50;;;26.60;1.00;;;;;;5056166;28;20106;-80